sensor_id;sensor_type;location;lat;lon;timestamp;P1;durP1;ratioP1;P2;durP2;ratioP2
11735;SDS011;5924;51.398;7.088;2022-12-08T00:01:44;51.17;;;26.70;;
11735;SDS011;5924;51.398;7.088;2022-12-08T00:04:10;55.10;;;26.93;;
11735;SDS011;5924;51.398;7.088;2022-12-08T00:06:36;48.97;;;25.70;;
11735;SDS011;5924;51.398;7.088;2022-12-08T00:09:24;52.00;;;25.27;;
11735;SDS011;5924;51.398;7.088;2022-12-08T00:11:54;48.57;;;24.77;;
11735;SDS011;5924;51.398;7.088;2022-12-08T00:14:23;45.97;;;26.23;;
11735;SDS011;5924;51.398;7.088;2022-12-08T00:16:52;54.73;;;24.97;;
11735;SDS011;5924;51.398;7.088;2022-12-08T00:19:18;40.33;;;24.10;;
11735;SDS011;5924;51.398;7.088;2022-12-08T00:21:44;49.10;;;23.90;;
11735;SDS011;5924;51.398;7.088;2022-12-08T00:24:10;38.37;;;24.00;;
11735;SDS011;5924;51.398;7.088;2022-12-08T00:26:36;43.80;;;24.10;;
11735;SDS011;5924;51.398;7.088;2022-12-08T00:29:02;40.07;;;25.07;;
11735;SDS011;5924;51.398;7.088;2022-12-08T00:31:28;39.83;;;23.50;;
11735;SDS011;5924;51.398;7.088;2022-12-08T00:33:53;45.57;;;22.97;;
11735;SDS011;5924;51.398;7.088;2022-12-08T00:36:19;35.40;;;22.00;;
11735;SDS011;5924;51.398;7.088;2022-12-08T00:38:45;38.73;;;22.47;;
11735;SDS011;5924;51.398;7.088;2022-12-08T00:41:13;37.73;;;21.87;;
11735;SDS011;5924;51.398;7.088;2022-12-08T00:43:41;39.53;;;22.23;;
11735;SDS011;5924;51.398;7.088;2022-12-08T00:46:07;32.97;;;22.77;;
11735;SDS011;5924;51.398;7.088;2022-12-08T00:48:33;40.13;;;21.47;;
11735;SDS011;5924;51.398;7.088;2022-12-08T00:50:58;39.70;;;23.60;;
11735;SDS011;5924;51.398;7.088;2022-12-08T00:53:24;35.17;;;23.13;;
11735;SDS011;5924;51.398;7.088;2022-12-08T00:55:50;38.63;;;23.90;;
11735;SDS011;5924;51.398;7.088;2022-12-08T00:58:15;43.43;;;23.63;;
11735;SDS011;5924;51.398;7.088;2022-12-08T01:00:41;34.57;;;23.50;;
11735;SDS011;5924;51.398;7.088;2022-12-08T01:03:10;38.67;;;23.73;;
11735;SDS011;5924;51.398;7.088;2022-12-08T01:05:37;39.53;;;21.70;;
11735;SDS011;5924;51.398;7.088;2022-12-08T01:08:06;35.00;;;20.80;;
11735;SDS011;5924;51.398;7.088;2022-12-08T01:10:35;35.80;;;21.53;;
11735;SDS011;5924;51.398;7.088;2022-12-08T01:13:02;35.80;;;22.80;;
11735;SDS011;5924;51.398;7.088;2022-12-08T01:15:28;37.03;;;22.73;;
11735;SDS011;5924;51.398;7.088;2022-12-08T01:17:54;30.17;;;20.87;;
11735;SDS011;5924;51.398;7.088;2022-12-08T01:20:19;31.80;;;21.53;;
11735;SDS011;5924;51.398;7.088;2022-12-08T01:22:45;37.13;;;21.53;;
11735;SDS011;5924;51.398;7.088;2022-12-08T01:25:10;43.37;;;23.43;;
11735;SDS011;5924;51.398;7.088;2022-12-08T01:27:36;38.47;;;23.17;;
11735;SDS011;5924;51.398;7.088;2022-12-08T01:30:02;45.60;;;23.13;;
11735;SDS011;5924;51.398;7.088;2022-12-08T01:32:28;34.27;;;22.10;;
11735;SDS011;5924;51.398;7.088;2022-12-08T01:34:54;40.47;;;22.73;;
11735;SDS011;5924;51.398;7.088;2022-12-08T01:37:19;33.30;;;20.30;;
11735;SDS011;5924;51.398;7.088;2022-12-08T01:39:45;36.77;;;21.50;;
11735;SDS011;5924;51.398;7.088;2022-12-08T01:42:17;34.33;;;20.17;;
11735;SDS011;5924;51.398;7.088;2022-12-08T01:44:48;39.83;;;22.57;;
11735;SDS011;5924;51.398;7.088;2022-12-08T01:47:19;36.40;;;22.37;;
11735;SDS011;5924;51.398;7.088;2022-12-08T01:49:45;37.93;;;20.93;;
11735;SDS011;5924;51.398;7.088;2022-12-08T01:52:33;48.93;;;22.53;;
11735;SDS011;5924;51.398;7.088;2022-12-08T01:55:02;39.00;;;23.00;;
11735;SDS011;5924;51.398;7.088;2022-12-08T01:57:47;35.10;;;22.50;;
11735;SDS011;5924;51.398;7.088;2022-12-08T02:00:16;54.30;;;23.47;;
11735;SDS011;5924;51.398;7.088;2022-12-08T02:05:31;42.30;;;24.03;;
11735;SDS011;5924;51.398;7.088;2022-12-08T02:08:00;41.03;;;24.10;;
11735;SDS011;5924;51.398;7.088;2022-12-08T02:10:29;43.93;;;23.47;;
11735;SDS011;5924;51.398;7.088;2022-12-08T02:12:57;46.47;;;23.93;;
11735;SDS011;5924;51.398;7.088;2022-12-08T02:16:08;47.30;;;24.33;;
11735;SDS011;5924;51.398;7.088;2022-12-08T02:21:00;45.00;;;23.47;;
11735;SDS011;5924;51.398;7.088;2022-12-08T02:34:58;45.97;;;23.30;;
11735;SDS011;5924;51.398;7.088;2022-12-08T02:37:46;42.23;;;24.00;;
11735;SDS011;5924;51.398;7.088;2022-12-08T02:40:41;46.60;;;23.50;;
11735;SDS011;5924;51.398;7.088;2022-12-08T02:43:25;41.37;;;22.23;;
11735;SDS011;5924;51.398;7.088;2022-12-08T02:46:08;44.63;;;24.03;;
11735;SDS011;5924;51.398;7.088;2022-12-08T02:48:37;50.10;;;25.70;;
11735;SDS011;5924;51.398;7.088;2022-12-08T02:51:04;42.00;;;23.13;;
11735;SDS011;5924;51.398;7.088;2022-12-08T02:53:31;43.13;;;24.00;;
11735;SDS011;5924;51.398;7.088;2022-12-08T02:56:04;39.43;;;21.87;;
11735;SDS011;5924;51.398;7.088;2022-12-08T03:03:44;39.93;;;22.73;;
11735;SDS011;5924;51.398;7.088;2022-12-08T03:12:15;50.57;;;23.60;;
11735;SDS011;5924;51.398;7.088;2022-12-08T03:14:55;46.00;;;22.90;;
11735;SDS011;5924;51.398;7.088;2022-12-08T03:17:27;47.43;;;23.37;;
11735;SDS011;5924;51.398;7.088;2022-12-08T03:19:55;41.17;;;22.80;;
11735;SDS011;5924;51.398;7.088;2022-12-08T03:22:24;45.40;;;22.90;;
11735;SDS011;5924;51.398;7.088;2022-12-08T03:24:51;41.67;;;23.50;;
11735;SDS011;5924;51.398;7.088;2022-12-08T03:27:21;44.37;;;23.90;;
11735;SDS011;5924;51.398;7.088;2022-12-08T03:29:50;48.77;;;22.67;;
11735;SDS011;5924;51.398;7.088;2022-12-08T03:34:55;43.20;;;21.37;;
11735;SDS011;5924;51.398;7.088;2022-12-08T03:37:25;45.77;;;22.17;;
11735;SDS011;5924;51.398;7.088;2022-12-08T03:39:52;38.90;;;21.03;;
11735;SDS011;5924;51.398;7.088;2022-12-08T03:42:17;38.60;;;20.87;;
11735;SDS011;5924;51.398;7.088;2022-12-08T03:44:43;41.47;;;20.60;;
11735;SDS011;5924;51.398;7.088;2022-12-08T03:47:09;43.60;;;21.67;;
11735;SDS011;5924;51.398;7.088;2022-12-08T03:49:34;39.57;;;19.60;;
11735;SDS011;5924;51.398;7.088;2022-12-08T03:52:00;33.53;;;19.20;;
11735;SDS011;5924;51.398;7.088;2022-12-08T03:54:25;33.47;;;19.00;;
11735;SDS011;5924;51.398;7.088;2022-12-08T03:56:51;33.90;;;18.40;;
11735;SDS011;5924;51.398;7.088;2022-12-08T03:59:17;30.60;;;18.57;;
11735;SDS011;5924;51.398;7.088;2022-12-08T04:01:42;34.30;;;18.67;;
11735;SDS011;5924;51.398;7.088;2022-12-08T04:04:08;41.90;;;21.43;;
11735;SDS011;5924;51.398;7.088;2022-12-08T04:06:34;35.63;;;18.80;;
11735;SDS011;5924;51.398;7.088;2022-12-08T04:09:00;32.80;;;18.67;;
11735;SDS011;5924;51.398;7.088;2022-12-08T04:11:25;40.73;;;18.97;;
11735;SDS011;5924;51.398;7.088;2022-12-08T04:13:51;39.93;;;19.27;;
11735;SDS011;5924;51.398;7.088;2022-12-08T04:16:20;35.07;;;19.80;;
11735;SDS011;5924;51.398;7.088;2022-12-08T04:18:48;27.10;;;16.90;;
11735;SDS011;5924;51.398;7.088;2022-12-08T04:21:14;32.57;;;16.93;;
11735;SDS011;5924;51.398;7.088;2022-12-08T04:23:40;31.17;;;17.50;;
11735;SDS011;5924;51.398;7.088;2022-12-08T04:26:06;34.33;;;19.27;;
11735;SDS011;5924;51.398;7.088;2022-12-08T04:28:32;30.30;;;17.93;;
11735;SDS011;5924;51.398;7.088;2022-12-08T04:30:58;28.43;;;18.27;;
11735;SDS011;5924;51.398;7.088;2022-12-08T04:33:24;29.70;;;18.07;;
11735;SDS011;5924;51.398;7.088;2022-12-08T04:35:49;34.67;;;16.93;;
11735;SDS011;5924;51.398;7.088;2022-12-08T04:38:15;35.13;;;18.67;;
11735;SDS011;5924;51.398;7.088;2022-12-08T04:40:41;24.63;;;15.57;;
11735;SDS011;5924;51.398;7.088;2022-12-08T04:43:07;24.87;;;16.20;;
11735;SDS011;5924;51.398;7.088;2022-12-08T04:45:32;26.37;;;16.17;;
11735;SDS011;5924;51.398;7.088;2022-12-08T04:47:59;22.87;;;16.00;;
11735;SDS011;5924;51.398;7.088;2022-12-08T04:50:25;24.93;;;15.10;;
11735;SDS011;5924;51.398;7.088;2022-12-08T04:52:51;29.03;;;14.87;;
11735;SDS011;5924;51.398;7.088;2022-12-08T04:55:17;23.83;;;14.80;;
11735;SDS011;5924;51.398;7.088;2022-12-08T04:57:43;25.27;;;15.70;;
11735;SDS011;5924;51.398;7.088;2022-12-08T05:00:09;25.67;;;16.03;;
11735;SDS011;5924;51.398;7.088;2022-12-08T05:02:35;27.40;;;15.73;;
11735;SDS011;5924;51.398;7.088;2022-12-08T05:05:01;30.47;;;17.93;;
11735;SDS011;5924;51.398;7.088;2022-12-08T05:07:27;28.93;;;16.63;;
11735;SDS011;5924;51.398;7.088;2022-12-08T05:09:53;28.90;;;16.50;;
11735;SDS011;5924;51.398;7.088;2022-12-08T05:12:19;31.93;;;16.60;;
11735;SDS011;5924;51.398;7.088;2022-12-08T05:14:45;26.13;;;15.80;;
11735;SDS011;5924;51.398;7.088;2022-12-08T05:17:11;30.30;;;18.40;;
11735;SDS011;5924;51.398;7.088;2022-12-08T05:19:37;29.93;;;17.77;;
11735;SDS011;5924;51.398;7.088;2022-12-08T05:22:03;34.10;;;17.10;;
11735;SDS011;5924;51.398;7.088;2022-12-08T05:24:29;25.20;;;14.63;;
11735;SDS011;5924;51.398;7.088;2022-12-08T05:26:54;25.00;;;14.43;;
11735;SDS011;5924;51.398;7.088;2022-12-08T05:29:20;30.83;;;15.43;;
11735;SDS011;5924;51.398;7.088;2022-12-08T05:31:45;30.00;;;15.77;;
11735;SDS011;5924;51.398;7.088;2022-12-08T05:34:11;25.93;;;15.30;;
11735;SDS011;5924;51.398;7.088;2022-12-08T05:36:37;29.23;;;16.70;;
11735;SDS011;5924;51.398;7.088;2022-12-08T05:39:02;33.50;;;16.33;;
11735;SDS011;5924;51.398;7.088;2022-12-08T05:41:28;31.33;;;17.93;;
11735;SDS011;5924;51.398;7.088;2022-12-08T05:43:54;28.37;;;17.13;;
11735;SDS011;5924;51.398;7.088;2022-12-08T05:46:19;30.00;;;16.90;;
11735;SDS011;5924;51.398;7.088;2022-12-08T05:48:45;29.50;;;16.83;;
11735;SDS011;5924;51.398;7.088;2022-12-08T05:51:15;33.60;;;18.60;;
11735;SDS011;5924;51.398;7.088;2022-12-08T05:53:43;33.97;;;17.87;;
11735;SDS011;5924;51.398;7.088;2022-12-08T05:56:10;34.00;;;18.87;;
11735;SDS011;5924;51.398;7.088;2022-12-08T05:58:35;38.33;;;19.67;;
11735;SDS011;5924;51.398;7.088;2022-12-08T06:01:01;41.73;;;19.20;;
11735;SDS011;5924;51.398;7.088;2022-12-08T06:03:27;39.70;;;21.00;;
11735;SDS011;5924;51.398;7.088;2022-12-08T06:05:52;35.20;;;19.70;;
11735;SDS011;5924;51.398;7.088;2022-12-08T06:08:18;32.70;;;17.40;;
11735;SDS011;5924;51.398;7.088;2022-12-08T06:10:44;44.97;;;20.20;;
11735;SDS011;5924;51.398;7.088;2022-12-08T06:13:10;42.87;;;19.40;;
11735;SDS011;5924;51.398;7.088;2022-12-08T06:15:37;36.63;;;18.80;;
11735;SDS011;5924;51.398;7.088;2022-12-08T06:18:03;37.57;;;19.90;;
11735;SDS011;5924;51.398;7.088;2022-12-08T06:20:29;39.63;;;19.20;;
11735;SDS011;5924;51.398;7.088;2022-12-08T06:22:55;37.83;;;19.80;;
11735;SDS011;5924;51.398;7.088;2022-12-08T06:25:20;39.43;;;20.83;;
11735;SDS011;5924;51.398;7.088;2022-12-08T06:27:47;37.43;;;20.10;;
11735;SDS011;5924;51.398;7.088;2022-12-08T06:30:12;39.30;;;19.10;;
11735;SDS011;5924;51.398;7.088;2022-12-08T06:32:38;43.33;;;21.20;;
11735;SDS011;5924;51.398;7.088;2022-12-08T06:35:04;34.90;;;18.33;;
11735;SDS011;5924;51.398;7.088;2022-12-08T06:37:30;36.97;;;21.23;;
11735;SDS011;5924;51.398;7.088;2022-12-08T06:39:56;32.83;;;17.97;;
11735;SDS011;5924;51.398;7.088;2022-12-08T06:42:22;38.93;;;19.30;;
11735;SDS011;5924;51.398;7.088;2022-12-08T06:45:06;36.63;;;19.87;;
11735;SDS011;5924;51.398;7.088;2022-12-08T06:47:32;42.30;;;20.80;;
11735;SDS011;5924;51.398;7.088;2022-12-08T06:49:58;48.20;;;20.73;;
11735;SDS011;5924;51.398;7.088;2022-12-08T06:52:23;39.27;;;18.83;;
11735;SDS011;5924;51.398;7.088;2022-12-08T06:54:49;42.80;;;21.93;;
11735;SDS011;5924;51.398;7.088;2022-12-08T06:57:14;42.10;;;19.80;;
11735;SDS011;5924;51.398;7.088;2022-12-08T06:59:40;39.50;;;19.63;;
11735;SDS011;5924;51.398;7.088;2022-12-08T07:02:06;45.10;;;20.77;;
11735;SDS011;5924;51.398;7.088;2022-12-08T07:04:31;48.97;;;21.50;;
11735;SDS011;5924;51.398;7.088;2022-12-08T07:06:57;41.57;;;19.63;;
11735;SDS011;5924;51.398;7.088;2022-12-08T07:09:23;43.27;;;21.37;;
11735;SDS011;5924;51.398;7.088;2022-12-08T07:11:48;37.00;;;19.73;;
11735;SDS011;5924;51.398;7.088;2022-12-08T07:14:14;39.97;;;19.40;;
11735;SDS011;5924;51.398;7.088;2022-12-08T07:16:40;46.70;;;21.83;;
11735;SDS011;5924;51.398;7.088;2022-12-08T07:19:05;51.33;;;22.00;;
11735;SDS011;5924;51.398;7.088;2022-12-08T07:21:31;50.63;;;22.27;;
11735;SDS011;5924;51.398;7.088;2022-12-08T07:23:57;43.17;;;21.83;;
11735;SDS011;5924;51.398;7.088;2022-12-08T07:26:22;42.07;;;21.37;;
11735;SDS011;5924;51.398;7.088;2022-12-08T07:28:48;38.03;;;21.07;;
11735;SDS011;5924;51.398;7.088;2022-12-08T07:31:20;38.87;;;20.00;;
11735;SDS011;5924;51.398;7.088;2022-12-08T07:33:47;43.73;;;22.90;;
11735;SDS011;5924;51.398;7.088;2022-12-08T07:36:14;42.50;;;22.60;;
11735;SDS011;5924;51.398;7.088;2022-12-08T07:38:40;46.10;;;21.50;;
11735;SDS011;5924;51.398;7.088;2022-12-08T07:41:10;42.87;;;20.83;;
11735;SDS011;5924;51.398;7.088;2022-12-08T07:43:36;50.50;;;23.10;;
11735;SDS011;5924;51.398;7.088;2022-12-08T07:46:02;44.13;;;22.33;;
11735;SDS011;5924;51.398;7.088;2022-12-08T07:48:28;45.60;;;22.60;;
11735;SDS011;5924;51.398;7.088;2022-12-08T07:51:03;45.83;;;21.90;;
11735;SDS011;5924;51.398;7.088;2022-12-08T07:53:29;50.70;;;23.37;;
11735;SDS011;5924;51.398;7.088;2022-12-08T07:55:55;47.50;;;21.70;;
11735;SDS011;5924;51.398;7.088;2022-12-08T07:58:21;44.13;;;20.30;;
11735;SDS011;5924;51.398;7.088;2022-12-08T08:00:47;43.53;;;22.37;;
11735;SDS011;5924;51.398;7.088;2022-12-08T08:03:13;43.83;;;21.27;;
11735;SDS011;5924;51.398;7.088;2022-12-08T08:05:39;36.67;;;21.20;;
11735;SDS011;5924;51.398;7.088;2022-12-08T08:08:05;42.77;;;21.10;;
11735;SDS011;5924;51.398;7.088;2022-12-08T08:10:30;37.80;;;21.23;;
11735;SDS011;5924;51.398;7.088;2022-12-08T08:12:59;36.70;;;19.90;;
11735;SDS011;5924;51.398;7.088;2022-12-08T08:15:25;33.97;;;18.87;;
11735;SDS011;5924;51.398;7.088;2022-12-08T08:17:51;34.90;;;16.60;;
11735;SDS011;5924;51.398;7.088;2022-12-08T08:20:18;31.07;;;16.60;;
11735;SDS011;5924;51.398;7.088;2022-12-08T08:22:45;27.70;;;17.30;;
11735;SDS011;5924;51.398;7.088;2022-12-08T08:25:11;31.07;;;16.43;;
11735;SDS011;5924;51.398;7.088;2022-12-08T08:27:38;30.27;;;16.20;;
11735;SDS011;5924;51.398;7.088;2022-12-08T08:30:05;24.40;;;15.83;;
11735;SDS011;5924;51.398;7.088;2022-12-08T08:32:32;29.10;;;16.17;;
11735;SDS011;5924;51.398;7.088;2022-12-08T08:34:58;27.90;;;16.33;;
11735;SDS011;5924;51.398;7.088;2022-12-08T08:37:24;24.90;;;15.00;;
11735;SDS011;5924;51.398;7.088;2022-12-08T08:39:50;25.67;;;15.57;;
11735;SDS011;5924;51.398;7.088;2022-12-08T08:42:15;27.97;;;15.40;;
11735;SDS011;5924;51.398;7.088;2022-12-08T08:44:41;28.60;;;16.13;;
11735;SDS011;5924;51.398;7.088;2022-12-08T08:47:07;23.60;;;14.83;;
11735;SDS011;5924;51.398;7.088;2022-12-08T08:49:33;22.90;;;13.70;;
11735;SDS011;5924;51.398;7.088;2022-12-08T08:51:59;28.03;;;14.93;;
11735;SDS011;5924;51.398;7.088;2022-12-08T08:54:24;22.97;;;14.20;;
11735;SDS011;5924;51.398;7.088;2022-12-08T08:56:52;26.60;;;14.77;;
11735;SDS011;5924;51.398;7.088;2022-12-08T08:59:17;23.10;;;13.47;;
11735;SDS011;5924;51.398;7.088;2022-12-08T09:01:43;22.00;;;13.67;;
11735;SDS011;5924;51.398;7.088;2022-12-08T09:04:09;25.33;;;13.27;;
11735;SDS011;5924;51.398;7.088;2022-12-08T09:06:34;21.63;;;12.83;;
11735;SDS011;5924;51.398;7.088;2022-12-08T09:09:00;24.90;;;13.53;;
11735;SDS011;5924;51.398;7.088;2022-12-08T09:11:26;25.57;;;14.87;;
11735;SDS011;5924;51.398;7.088;2022-12-08T09:13:52;23.90;;;13.93;;
11735;SDS011;5924;51.398;7.088;2022-12-08T09:16:18;23.30;;;13.80;;
11735;SDS011;5924;51.398;7.088;2022-12-08T09:18:45;21.50;;;14.37;;
11735;SDS011;5924;51.398;7.088;2022-12-08T09:21:14;25.67;;;14.03;;
11735;SDS011;5924;51.398;7.088;2022-12-08T09:23:46;20.33;;;13.17;;
11735;SDS011;5924;51.398;7.088;2022-12-08T09:26:16;21.43;;;13.77;;
11735;SDS011;5924;51.398;7.088;2022-12-08T09:28:42;23.73;;;14.43;;
11735;SDS011;5924;51.398;7.088;2022-12-08T09:31:11;28.80;;;14.80;;
11735;SDS011;5924;51.398;7.088;2022-12-08T09:33:38;22.70;;;12.97;;
11735;SDS011;5924;51.398;7.088;2022-12-08T09:36:03;23.80;;;13.90;;
11735;SDS011;5924;51.398;7.088;2022-12-08T09:38:30;22.07;;;14.40;;
11735;SDS011;5924;51.398;7.088;2022-12-08T09:40:55;29.10;;;15.60;;
11735;SDS011;5924;51.398;7.088;2022-12-08T09:46:09;26.50;;;14.93;;
11735;SDS011;5924;51.398;7.088;2022-12-08T09:48:44;35.70;;;16.00;;
11735;SDS011;5924;51.398;7.088;2022-12-08T09:51:20;27.93;;;16.93;;
11735;SDS011;5924;51.398;7.088;2022-12-08T09:56:33;27.50;;;16.97;;
11735;SDS011;5924;51.398;7.088;2022-12-08T10:01:55;35.27;;;18.67;;
11735;SDS011;5924;51.398;7.088;2022-12-08T10:18:09;35.60;;;19.70;;
11735;SDS011;5924;51.398;7.088;2022-12-08T10:23:42;34.23;;;17.43;;
11735;SDS011;5924;51.398;7.088;2022-12-08T10:26:12;34.27;;;18.00;;
11735;SDS011;5924;51.398;7.088;2022-12-08T10:28:40;31.50;;;18.20;;
11735;SDS011;5924;51.398;7.088;2022-12-08T10:31:13;38.13;;;18.80;;
11735;SDS011;5924;51.398;7.088;2022-12-08T10:33:47;33.07;;;17.50;;
11735;SDS011;5924;51.398;7.088;2022-12-08T10:36:19;31.43;;;18.10;;
11735;SDS011;5924;51.398;7.088;2022-12-08T10:38:44;33.10;;;19.90;;
11735;SDS011;5924;51.398;7.088;2022-12-08T10:43:46;33.03;;;17.70;;
11735;SDS011;5924;51.398;7.088;2022-12-08T10:46:24;28.50;;;17.60;;
11735;SDS011;5924;51.398;7.088;2022-12-08T10:48:52;27.70;;;16.93;;
11735;SDS011;5924;51.398;7.088;2022-12-08T10:51:33;38.00;;;18.33;;
11735;SDS011;5924;51.398;7.088;2022-12-08T10:54:04;36.97;;;16.00;;
11735;SDS011;5924;51.398;7.088;2022-12-08T10:56:57;30.20;;;18.37;;
11735;SDS011;5924;51.398;7.088;2022-12-08T10:59:23;33.67;;;16.93;;
11735;SDS011;5924;51.398;7.088;2022-12-08T11:01:53;28.97;;;16.10;;
11735;SDS011;5924;51.398;7.088;2022-12-08T11:04:20;28.67;;;17.20;;
11735;SDS011;5924;51.398;7.088;2022-12-08T11:06:59;28.50;;;16.70;;
11735;SDS011;5924;51.398;7.088;2022-12-08T11:12:13;32.67;;;18.07;;
11735;SDS011;5924;51.398;7.088;2022-12-08T11:17:11;32.67;;;18.30;;
11735;SDS011;5924;51.398;7.088;2022-12-08T11:19:40;29.53;;;18.57;;
11735;SDS011;5924;51.398;7.088;2022-12-08T11:24:55;31.87;;;19.00;;
11735;SDS011;5924;51.398;7.088;2022-12-08T11:27:23;32.83;;;19.60;;
11735;SDS011;5924;51.398;7.088;2022-12-08T11:29:49;35.90;;;19.43;;
11735;SDS011;5924;51.398;7.088;2022-12-08T11:32:14;41.53;;;21.57;;
11735;SDS011;5924;51.398;7.088;2022-12-08T11:34:50;39.87;;;22.13;;
11735;SDS011;5924;51.398;7.088;2022-12-08T11:37:27;48.93;;;21.20;;
11735;SDS011;5924;51.398;7.088;2022-12-08T11:39:57;41.83;;;22.80;;
11735;SDS011;5924;51.398;7.088;2022-12-08T11:42:29;38.50;;;22.00;;
11735;SDS011;5924;51.398;7.088;2022-12-08T11:45:02;48.30;;;23.43;;
11735;SDS011;5924;51.398;7.088;2022-12-08T11:47:37;37.20;;;20.40;;
11735;SDS011;5924;51.398;7.088;2022-12-08T11:53:21;40.70;;;22.77;;
11735;SDS011;5924;51.398;7.088;2022-12-08T11:55:54;37.67;;;20.40;;
11735;SDS011;5924;51.398;7.088;2022-12-08T11:58:26;36.83;;;20.50;;
11735;SDS011;5924;51.398;7.088;2022-12-08T12:01:19;39.17;;;19.40;;
11735;SDS011;5924;51.398;7.088;2022-12-08T12:14:55;37.70;;;19.70;;
11735;SDS011;5924;51.398;7.088;2022-12-08T12:20:48;32.63;;;18.20;;
11735;SDS011;5924;51.398;7.088;2022-12-08T12:23:01;33.77;;;18.83;;
11735;SDS011;5924;51.398;7.088;2022-12-08T12:25:31;28.07;;;18.00;;
11735;SDS011;5924;51.398;7.088;2022-12-08T12:28:00;35.97;;;18.50;;
11735;SDS011;5924;51.398;7.088;2022-12-08T12:30:31;29.80;;;18.77;;
11735;SDS011;5924;51.398;7.088;2022-12-08T12:33:19;35.47;;;17.80;;
11735;SDS011;5924;51.398;7.088;2022-12-08T12:35:46;40.67;;;20.13;;
11735;SDS011;5924;51.398;7.088;2022-12-08T12:38:32;43.77;;;18.87;;
11735;SDS011;5924;51.398;7.088;2022-12-08T12:41:23;34.20;;;18.57;;
11735;SDS011;5924;51.398;7.088;2022-12-08T12:46:37;39.43;;;20.50;;
11735;SDS011;5924;51.398;7.088;2022-12-08T12:49:46;30.53;;;19.00;;
11735;SDS011;5924;51.398;7.088;2022-12-08T12:54:43;38.23;;;18.87;;
11735;SDS011;5924;51.398;7.088;2022-12-08T12:57:40;38.40;;;19.90;;
11735;SDS011;5924;51.398;7.088;2022-12-08T13:00:16;40.70;;;20.83;;
11735;SDS011;5924;51.398;7.088;2022-12-08T13:02:47;30.87;;;17.27;;
11735;SDS011;5924;51.398;7.088;2022-12-08T13:05:17;31.37;;;19.10;;
11735;SDS011;5924;51.398;7.088;2022-12-08T13:10:23;32.33;;;17.90;;
11735;SDS011;5924;51.398;7.088;2022-12-08T13:21:33;24.70;;;16.67;;
11735;SDS011;5924;51.398;7.088;2022-12-08T13:23:50;29.43;;;18.00;;
11735;SDS011;5924;51.398;7.088;2022-12-08T13:29:15;28.77;;;17.30;;
11735;SDS011;5924;51.398;7.088;2022-12-08T13:31:55;28.53;;;17.70;;
11735;SDS011;5924;51.398;7.088;2022-12-08T13:34:40;30.73;;;17.70;;
11735;SDS011;5924;51.398;7.088;2022-12-08T13:37:17;27.73;;;17.03;;
11735;SDS011;5924;51.398;7.088;2022-12-08T13:40:00;25.73;;;16.93;;
11735;SDS011;5924;51.398;7.088;2022-12-08T13:47:37;21.13;;;15.77;;
11735;SDS011;5924;51.398;7.088;2022-12-08T13:50:20;25.43;;;16.80;;
11735;SDS011;5924;51.398;7.088;2022-12-08T13:53:22;28.70;;;15.47;;
11735;SDS011;5924;51.398;7.088;2022-12-08T13:55:54;23.50;;;14.83;;
11735;SDS011;5924;51.398;7.088;2022-12-08T13:58:27;23.40;;;15.30;;
11735;SDS011;5924;51.398;7.088;2022-12-08T14:03:46;27.20;;;16.60;;
11735;SDS011;5924;51.398;7.088;2022-12-08T14:06:16;24.40;;;15.73;;
11735;SDS011;5924;51.398;7.088;2022-12-08T14:09:10;20.70;;;14.30;;
11735;SDS011;5924;51.398;7.088;2022-12-08T14:11:42;24.30;;;13.83;;
11735;SDS011;5924;51.398;7.088;2022-12-08T14:14:18;23.53;;;14.90;;
11735;SDS011;5924;51.398;7.088;2022-12-08T14:16:51;26.60;;;16.37;;
11735;SDS011;5924;51.398;7.088;2022-12-08T14:19:23;30.83;;;18.47;;
11735;SDS011;5924;51.398;7.088;2022-12-08T14:21:52;29.17;;;15.93;;
11735;SDS011;5924;51.398;7.088;2022-12-08T14:24:37;28.57;;;16.17;;
11735;SDS011;5924;51.398;7.088;2022-12-08T14:27:06;29.70;;;17.40;;
11735;SDS011;5924;51.398;7.088;2022-12-08T14:29:35;29.37;;;16.60;;
11735;SDS011;5924;51.398;7.088;2022-12-08T14:32:05;27.03;;;17.10;;
11735;SDS011;5924;51.398;7.088;2022-12-08T14:35:31;25.03;;;15.23;;
11735;SDS011;5924;51.398;7.088;2022-12-08T14:37:38;29.20;;;16.60;;
11735;SDS011;5924;51.398;7.088;2022-12-08T14:40:20;31.53;;;18.83;;
11735;SDS011;5924;51.398;7.088;2022-12-08T14:45:31;33.57;;;20.33;;
11735;SDS011;5924;51.398;7.088;2022-12-08T14:53:55;34.33;;;19.20;;
11735;SDS011;5924;51.398;7.088;2022-12-08T15:01:33;37.60;;;19.43;;
11735;SDS011;5924;51.398;7.088;2022-12-08T15:04:14;29.13;;;17.90;;
11735;SDS011;5924;51.398;7.088;2022-12-08T15:06:44;29.20;;;17.70;;
11735;SDS011;5924;51.398;7.088;2022-12-08T15:12:02;26.67;;;17.00;;
11735;SDS011;5924;51.398;7.088;2022-12-08T15:14:33;34.77;;;19.10;;
11735;SDS011;5924;51.398;7.088;2022-12-08T15:17:00;30.07;;;17.47;;
11735;SDS011;5924;51.398;7.088;2022-12-08T15:19:31;29.03;;;18.33;;
11735;SDS011;5924;51.398;7.088;2022-12-08T15:21:59;31.23;;;18.10;;
11735;SDS011;5924;51.398;7.088;2022-12-08T15:24:42;30.40;;;17.03;;
11735;SDS011;5924;51.398;7.088;2022-12-08T15:27:08;32.37;;;18.93;;
11735;SDS011;5924;51.398;7.088;2022-12-08T15:29:41;29.03;;;17.50;;
11735;SDS011;5924;51.398;7.088;2022-12-08T15:32:07;32.87;;;17.47;;
11735;SDS011;5924;51.398;7.088;2022-12-08T15:34:35;48.50;;;23.70;;
11735;SDS011;5924;51.398;7.088;2022-12-08T15:37:01;80.00;;;35.83;;
11735;SDS011;5924;51.398;7.088;2022-12-08T15:39:35;131.37;;;46.53;;
11735;SDS011;5924;51.398;7.088;2022-12-08T15:42:02;94.53;;;40.53;;
11735;SDS011;5924;51.398;7.088;2022-12-08T15:44:33;101.40;;;41.53;;
11735;SDS011;5924;51.398;7.088;2022-12-08T15:46:59;129.97;;;47.80;;
11735;SDS011;5924;51.398;7.088;2022-12-08T15:49:25;103.80;;;42.10;;
11735;SDS011;5924;51.398;7.088;2022-12-08T15:51:51;88.10;;;39.27;;
11735;SDS011;5924;51.398;7.088;2022-12-08T15:54:17;68.50;;;32.77;;
11735;SDS011;5924;51.398;7.088;2022-12-08T15:56:44;62.93;;;30.40;;
11735;SDS011;5924;51.398;7.088;2022-12-08T15:59:17;47.80;;;26.10;;
11735;SDS011;5924;51.398;7.088;2022-12-08T16:01:44;51.43;;;25.37;;
11735;SDS011;5924;51.398;7.088;2022-12-08T16:04:14;44.93;;;23.37;;
11735;SDS011;5924;51.398;7.088;2022-12-08T16:06:42;37.10;;;21.07;;
11735;SDS011;5924;51.398;7.088;2022-12-08T16:09:20;36.17;;;19.87;;
11735;SDS011;5924;51.398;7.088;2022-12-08T16:12:16;36.27;;;20.87;;
11735;SDS011;5924;51.398;7.088;2022-12-08T16:15:04;34.87;;;19.40;;
11735;SDS011;5924;51.398;7.088;2022-12-08T16:17:31;38.17;;;19.20;;
11735;SDS011;5924;51.398;7.088;2022-12-08T16:19:57;39.33;;;19.63;;
11735;SDS011;5924;51.398;7.088;2022-12-08T16:22:24;32.77;;;18.40;;
11735;SDS011;5924;51.398;7.088;2022-12-08T16:24:51;29.23;;;17.07;;
11735;SDS011;5924;51.398;7.088;2022-12-08T16:27:25;26.53;;;14.80;;
11735;SDS011;5924;51.398;7.088;2022-12-08T16:29:54;26.30;;;16.30;;
11735;SDS011;5924;51.398;7.088;2022-12-08T16:32:21;29.23;;;17.53;;
11735;SDS011;5924;51.398;7.088;2022-12-08T16:34:47;32.40;;;18.63;;
11735;SDS011;5924;51.398;7.088;2022-12-08T16:37:14;43.93;;;21.90;;
11735;SDS011;5924;51.398;7.088;2022-12-08T16:39:45;31.67;;;18.27;;
11735;SDS011;5924;51.398;7.088;2022-12-08T16:42:14;36.60;;;18.97;;
11735;SDS011;5924;51.398;7.088;2022-12-08T16:45:04;32.37;;;19.53;;
11735;SDS011;5924;51.398;7.088;2022-12-08T16:47:32;35.83;;;19.33;;
11735;SDS011;5924;51.398;7.088;2022-12-08T16:49:58;35.07;;;18.50;;
11735;SDS011;5924;51.398;7.088;2022-12-08T16:52:23;38.33;;;19.93;;
11735;SDS011;5924;51.398;7.088;2022-12-08T16:54:49;38.10;;;19.20;;